createdAt,value
2023-02-06T00:01:20.553Z,3.20
2023-02-06T00:03:47.353Z,3.30
2023-02-06T00:06:14.358Z,3.20
2023-02-06T00:08:41.420Z,3.10
2023-02-06T00:11:12.111Z,3.20
2023-02-06T00:13:39.039Z,3.30
2023-02-06T00:16:09.490Z,3.20
2023-02-06T00:18:36.215Z,3.20
2023-02-06T00:21:02.826Z,3.20
2023-02-06T00:23:29.504Z,3.20
2023-02-06T00:25:56.140Z,3.30
2023-02-06T00:28:22.769Z,3.30
2023-02-06T00:30:49.816Z,3.10
2023-02-06T00:33:16.538Z,3.10
2023-02-06T00:35:43.199Z,3.20
2023-02-06T00:38:13.101Z,3.20
2023-02-06T00:40:39.782Z,3.20
2023-02-06T00:43:06.587Z,3.20
2023-02-06T00:45:33.579Z,3.10
2023-02-06T00:48:02.044Z,3.00
2023-02-06T00:50:29.601Z,2.90
2023-02-06T00:52:56.273Z,3.00
2023-02-06T00:55:23.166Z,3.10
2023-02-06T00:57:49.812Z,3.20
2023-02-06T01:00:16.770Z,3.20
2023-02-06T01:02:43.548Z,3.20
2023-02-06T01:05:10.378Z,3.30
2023-02-06T01:07:39.550Z,3.30
2023-02-06T01:10:07.927Z,3.30
2023-02-06T01:12:36.057Z,3.30
2023-02-06T01:15:05.528Z,3.40
2023-02-06T01:17:33.433Z,3.40
2023-02-06T01:20:00.518Z,3.40
2023-02-06T01:22:27.650Z,3.20
2023-02-06T01:24:54.331Z,3.20
2023-02-06T01:27:21.119Z,3.20
2023-02-06T01:29:47.754Z,3.40
2023-02-06T01:32:14.477Z,3.30
2023-02-06T01:34:41.243Z,3.20
2023-02-06T01:37:08.653Z,3.00
2023-02-06T01:39:35.366Z,3.10
2023-02-06T01:42:02.300Z,3.40
2023-02-06T01:44:32.247Z,3.40
2023-02-06T01:46:59.082Z,3.10
2023-02-06T01:49:48.400Z,3.00
2023-02-06T01:52:21.420Z,3.20
2023-02-06T01:54:55.726Z,3.30
2023-02-06T01:57:23.973Z,3.10
2023-02-06T01:59:54.567Z,3.00
2023-02-06T02:02:25.173Z,2.90
2023-02-06T02:04:53.497Z,2.90
2023-02-06T02:07:24.657Z,2.80
2023-02-06T02:09:52.462Z,2.80
2023-02-06T02:12:19.616Z,3.00
2023-02-06T02:14:48.768Z,3.10
2023-02-06T02:17:49.691Z,2.90
2023-02-06T02:20:51.348Z,3.00
2023-02-06T02:23:17.973Z,2.90
2023-02-06T02:25:54.121Z,2.90
2023-02-06T02:28:29.504Z,3.00
2023-02-06T02:31:27.326Z,3.00
2023-02-06T02:34:12.826Z,3.00
2023-02-06T02:36:47.707Z,3.10
2023-02-06T02:39:19.588Z,3.10
2023-02-06T02:42:23.888Z,3.20
2023-02-06T02:45:04.267Z,3.10
2023-02-06T02:47:41.061Z,3.00
2023-02-06T02:50:08.172Z,2.90
2023-02-06T02:52:35.252Z,2.80
2023-02-06T02:55:01.974Z,3.00
2023-02-06T02:57:31.693Z,3.00
2023-02-06T03:00:01.147Z,3.00
2023-02-06T03:02:35.109Z,3.00
2023-02-06T03:05:11.992Z,3.00
2023-02-06T03:08:06.781Z,2.90
2023-02-06T03:10:46.257Z,2.80
2023-02-06T03:13:34.435Z,3.10
2023-02-06T03:16:22.967Z,3.10
2023-02-06T03:19:02.650Z,2.90
2023-02-06T03:21:30.221Z,3.10
2023-02-06T03:24:01.174Z,3.20
2023-02-06T03:26:30.399Z,3.10
2023-02-06T03:29:02.062Z,3.10
2023-02-06T03:31:44.023Z,2.90
2023-02-06T03:34:31.418Z,2.90
2023-02-06T03:36:58.253Z,3.00
2023-02-06T03:39:25.136Z,2.80
2023-02-06T03:41:53.932Z,2.80
2023-02-06T03:44:25.142Z,2.80
2023-02-06T03:46:54.326Z,3.00
2023-02-06T03:49:23.175Z,3.20
2023-02-06T03:51:57.506Z,3.10
2023-02-06T03:54:26.364Z,3.00
2023-02-06T03:56:56.410Z,2.90
2023-02-06T03:59:23.371Z,2.90
2023-02-06T04:01:53.449Z,3.10
2023-02-06T04:04:28.706Z,3.20
2023-02-06T04:07:12.843Z,3.00
2023-02-06T04:09:40.275Z,2.70
2023-02-06T04:12:07.428Z,2.60
2023-02-06T04:14:36.669Z,2.80
2023-02-06T04:17:06.891Z,3.00
2023-02-06T04:19:34.395Z,3.00
2023-02-06T04:22:01.422Z,2.90
2023-02-06T04:24:30.789Z,3.10
2023-02-06T04:26:57.794Z,3.10
2023-02-06T04:29:24.829Z,3.10
2023-02-06T04:31:51.634Z,3.00
2023-02-06T04:34:18.290Z,2.90
2023-02-06T04:36:45.008Z,2.90
2023-02-06T04:39:11.638Z,2.80
2023-02-06T04:41:38.271Z,2.70
2023-02-06T04:44:05.082Z,2.90
2023-02-06T04:46:31.840Z,3.00
2023-02-06T04:48:58.472Z,3.10
2023-02-06T04:51:25.116Z,3.10
2023-02-06T04:53:51.886Z,3.10
2023-02-06T04:56:18.948Z,3.10
2023-02-06T04:58:45.613Z,3.00
2023-02-06T05:01:12.413Z,3.00
2023-02-06T05:03:39.149Z,3.10
2023-02-06T05:06:06.052Z,2.90
2023-02-06T05:08:32.803Z,2.90
2023-02-06T05:10:59.508Z,2.90
2023-02-06T05:13:26.211Z,3.00
2023-02-06T05:15:53.306Z,3.20
2023-02-06T05:18:20.108Z,3.10
2023-02-06T05:20:46.799Z,3.10
2023-02-06T05:23:13.553Z,2.90
2023-02-06T05:25:42.203Z,2.90
2023-02-06T05:28:09.098Z,2.90
2023-02-06T05:30:36.123Z,2.90
2023-02-06T05:33:02.843Z,2.70
2023-02-06T05:35:29.642Z,2.70
2023-02-06T05:37:57.848Z,2.70
2023-02-06T05:40:24.705Z,2.70
2023-02-06T05:42:51.418Z,2.70
2023-02-06T05:45:18.175Z,2.80
2023-02-06T05:47:44.942Z,2.60
2023-02-06T05:50:11.770Z,2.50
2023-02-06T05:52:38.466Z,2.60
2023-02-06T05:55:05.404Z,2.90
2023-02-06T05:57:32.177Z,3.00
2023-02-06T05:59:58.839Z,2.80
2023-02-06T06:02:25.604Z,2.70
2023-02-06T06:04:52.335Z,2.80
2023-02-06T06:07:18.998Z,2.80
2023-02-06T06:09:45.807Z,2.60
2023-02-06T06:12:12.514Z,2.50
2023-02-06T06:14:43.540Z,2.50
2023-02-06T06:17:10.333Z,2.70
2023-02-06T06:19:37.097Z,2.70
2023-02-06T06:22:03.767Z,2.70
2023-02-06T06:24:30.431Z,2.60
2023-02-06T06:26:58.840Z,2.80
2023-02-06T06:29:26.064Z,2.80
2023-02-06T06:31:52.978Z,2.90
2023-02-06T06:34:19.875Z,2.80
2023-02-06T06:36:46.890Z,2.60
2023-02-06T06:39:14.279Z,2.50
2023-02-06T06:41:40.916Z,2.50
2023-02-06T06:44:07.906Z,2.70
2023-02-06T06:46:34.637Z,2.80
2023-02-06T06:49:01.881Z,2.60
2023-02-06T06:51:31.892Z,2.70
2023-02-06T06:53:58.763Z,2.50
2023-02-06T06:56:25.651Z,2.40
2023-02-06T06:58:52.788Z,2.30
2023-02-06T07:01:19.739Z,2.40
2023-02-06T07:03:48.305Z,2.60
2023-02-06T07:06:16.002Z,2.70
2023-02-06T07:08:43.447Z,3.00
2023-02-06T07:11:11.629Z,3.10
2023-02-06T07:13:38.879Z,3.00
2023-02-06T07:16:06.058Z,2.90
2023-02-06T07:18:32.833Z,2.70
2023-02-06T07:20:59.823Z,2.60
2023-02-06T07:23:26.841Z,2.70
2023-02-06T07:25:53.950Z,2.60
2023-02-06T07:28:20.646Z,2.70
2023-02-06T07:30:47.417Z,3.10
2023-02-06T07:33:14.189Z,3.00
2023-02-06T07:35:42.638Z,3.00
2023-02-06T07:38:09.269Z,3.00
2023-02-06T07:40:44.800Z,3.10
2023-02-06T07:43:13.363Z,3.20
2023-02-06T07:45:40.219Z,3.10
2023-02-06T07:48:07.292Z,2.90
2023-02-06T07:50:34.457Z,2.70
2023-02-06T07:53:01.200Z,2.60
2023-02-06T07:55:28.261Z,3.00
2023-02-06T07:57:55.313Z,2.90
2023-02-06T08:00:22.004Z,3.00
2023-02-06T08:02:48.771Z,3.00
2023-02-06T08:05:15.509Z,3.00
2023-02-06T08:07:42.212Z,3.00
2023-02-06T08:10:09.341Z,3.30
2023-02-06T08:12:36.016Z,3.20
2023-02-06T08:15:02.814Z,3.10
2023-02-06T08:17:29.460Z,2.90
2023-02-06T08:19:56.097Z,3.00
2023-02-06T08:22:22.754Z,3.10
2023-02-06T08:24:49.428Z,3.40
2023-02-06T08:27:16.087Z,3.60
2023-02-06T08:29:42.922Z,3.70
2023-02-06T08:32:10.790Z,3.80
2023-02-06T08:34:39.532Z,3.60
2023-02-06T08:37:06.586Z,3.50
2023-02-06T08:39:33.333Z,3.40
2023-02-06T08:42:00.045Z,3.40
2023-02-06T08:44:26.711Z,3.40
2023-02-06T08:47:04.720Z,3.40
2023-02-06T08:49:36.111Z,3.30
2023-02-06T08:52:02.860Z,3.50
2023-02-06T08:54:29.676Z,3.60
2023-02-06T08:56:58.305Z,3.60
2023-02-06T08:59:25.148Z,3.70
2023-02-06T09:01:54.236Z,3.80
2023-02-06T09:04:20.948Z,4.00
2023-02-06T09:06:49.068Z,4.10
2023-02-06T09:09:15.904Z,4.10
2023-02-06T09:11:42.953Z,4.30
2023-02-06T09:14:14.528Z,4.40
2023-02-06T09:16:41.218Z,4.40
2023-02-06T09:19:08.223Z,4.50
2023-02-06T09:21:35.864Z,4.70
2023-02-06T09:24:06.190Z,4.70
2023-02-06T09:26:53.533Z,4.60
2023-02-06T09:29:25.031Z,4.60
2023-02-06T09:31:51.801Z,4.70
2023-02-06T09:34:18.472Z,4.70
2023-02-06T09:36:45.831Z,4.70
2023-02-06T09:39:12.578Z,4.70
2023-02-06T09:41:48.978Z,4.40
2023-02-06T09:44:18.835Z,3.90
2023-02-06T09:47:09.241Z,3.70
2023-02-06T09:49:50.123Z,3.70
2023-02-06T09:52:38.401Z,3.80
2023-02-06T09:55:25.238Z,4.00
2023-02-06T09:57:58.076Z,3.90
2023-02-06T10:00:41.891Z,3.80
2023-02-06T10:03:36.443Z,4.00
2023-02-06T10:06:06.212Z,3.80
2023-02-06T10:09:01.027Z,3.70
2023-02-06T10:11:42.842Z,3.80
2023-02-06T10:14:44.365Z,3.90
2023-02-06T10:17:19.337Z,4.20
2023-02-06T10:19:58.142Z,4.50
2023-02-06T10:22:48.994Z,4.70
2023-02-06T10:25:38.852Z,4.60
2023-02-06T10:28:24.309Z,4.50
2023-02-06T10:31:13.587Z,4.40
2023-02-06T10:33:58.957Z,4.60
2023-02-06T10:36:50.009Z,4.40
2023-02-06T10:39:50.643Z,4.40
2023-02-06T10:42:43.755Z,4.10
2023-02-06T10:45:20.588Z,4.40
2023-02-06T10:47:55.009Z,4.60
2023-02-06T10:50:38.533Z,4.40
2023-02-06T10:53:31.886Z,4.60
2023-02-06T10:56:14.983Z,4.70
2023-02-06T10:58:48.312Z,4.70
2023-02-06T11:01:25.610Z,4.40
2023-02-06T11:04:17.926Z,4.50
2023-02-06T11:06:46.847Z,4.40
2023-02-06T11:09:14.555Z,4.40
2023-02-06T11:11:48.502Z,4.40
2023-02-06T11:14:25.216Z,4.40
2023-02-06T11:16:52.709Z,4.50
2023-02-06T11:19:30.849Z,4.50
2023-02-06T11:22:11.388Z,4.40
2023-02-06T11:24:39.497Z,4.30
2023-02-06T11:27:16.915Z,4.10
2023-02-06T11:29:49.357Z,4.10
2023-02-06T11:32:36.312Z,4.00
2023-02-06T11:35:22.048Z,4.00
2023-02-06T11:37:53.909Z,3.90
2023-02-06T11:40:20.484Z,3.90
2023-02-06T11:42:50.242Z,4.10
2023-02-06T11:45:28.690Z,4.10
2023-02-06T11:47:55.734Z,4.10
2023-02-06T11:50:41.190Z,4.00
2023-02-06T11:53:10.642Z,3.90
2023-02-06T11:55:39.599Z,3.90
2023-02-06T11:58:10.730Z,4.00
2023-02-06T12:00:40.290Z,4.20
2023-02-06T12:03:26.537Z,4.50
2023-02-06T12:05:55.295Z,4.40
2023-02-06T12:08:24.576Z,4.50
2023-02-06T12:11:02.614Z,4.90
2023-02-06T12:13:37.338Z,5.10
2023-02-06T12:16:08.045Z,5.30
2023-02-06T12:18:40.235Z,5.40
2023-02-06T12:21:38.082Z,7.20
2023-02-06T12:24:32.855Z,7.90
2023-02-06T12:27:05.332Z,7.50
2023-02-06T12:29:41.726Z,7.10
2023-02-06T12:32:16.103Z,9.20
2023-02-06T12:34:53.987Z,12.40
2023-02-06T12:37:42.337Z,15.80
2023-02-06T12:40:31.948Z,17.90
2023-02-06T12:43:14.260Z,19.10
2023-02-06T12:45:54.104Z,19.70
2023-02-06T12:48:35.436Z,18.10
2023-02-06T12:51:07.902Z,15.60
2023-02-06T12:53:53.656Z,13.20
2023-02-06T12:56:44.210Z,11.30
2023-02-06T12:59:19.856Z,9.70
2023-02-06T13:01:49.386Z,8.00
2023-02-06T13:04:25.651Z,7.30
2023-02-06T13:07:06.386Z,7.70
2023-02-06T13:10:00.477Z,7.90
2023-02-06T13:12:30.111Z,7.80
2023-02-06T13:15:07.456Z,7.30
2023-02-06T13:17:37.199Z,7.00
2023-02-06T13:20:10.065Z,6.70
2023-02-06T13:22:49.149Z,6.70
2023-02-06T13:25:24.947Z,6.70
2023-02-06T13:27:56.831Z,6.70
2023-02-06T13:30:29.645Z,6.30
2023-02-06T13:33:14.149Z,6.60
2023-02-06T13:35:57.346Z,6.70
2023-02-06T13:38:23.981Z,6.90
2023-02-06T13:41:12.477Z,7.00
2023-02-06T13:43:49.142Z,7.00
2023-02-06T13:46:19.368Z,7.00
2023-02-06T13:48:49.131Z,6.80
2023-02-06T13:51:34.721Z,6.60
2023-02-06T13:54:26.008Z,6.20
2023-02-06T13:57:25.134Z,6.20
2023-02-06T14:00:24.097Z,6.10
2023-02-06T14:03:25.482Z,5.80
2023-02-06T14:06:20.416Z,5.80
2023-02-06T14:09:10.983Z,5.50
2023-02-06T14:12:08.003Z,5.30
2023-02-06T14:14:57.536Z,5.20
2023-02-06T14:17:56.920Z,5.20
2023-02-06T14:20:59.209Z,5.30
2023-02-06T14:23:45.676Z,5.20
2023-02-06T14:26:21.697Z,5.00
2023-02-06T14:29:11.837Z,5.10
2023-02-06T14:32:09.685Z,5.20
2023-02-06T14:34:43.556Z,5.10
2023-02-06T14:37:28.425Z,5.10
2023-02-06T14:40:04.549Z,5.00
2023-02-06T14:42:31.304Z,5.20
2023-02-06T14:45:08.582Z,5.30
2023-02-06T14:47:42.361Z,5.20
2023-02-06T14:50:19.428Z,5.20
2023-02-06T14:52:51.399Z,5.30
2023-02-06T14:55:38.617Z,5.40
2023-02-06T14:58:18.793Z,5.40
2023-02-06T15:00:45.810Z,5.50
2023-02-06T15:03:20.440Z,5.50
2023-02-06T15:05:47.363Z,5.50
2023-02-06T15:08:19.565Z,5.40
2023-02-06T15:10:47.269Z,5.50
2023-02-06T15:13:25.116Z,5.50
2023-02-06T15:15:57.369Z,5.40
2023-02-06T15:18:24.617Z,5.30
2023-02-06T15:21:01.121Z,5.20
2023-02-06T15:23:57.087Z,5.20
2023-02-06T15:27:02.383Z,5.20
2023-02-06T15:29:29.577Z,5.30
2023-02-06T15:32:04.967Z,5.30
2023-02-06T15:34:35.425Z,5.30
2023-02-06T15:37:20.980Z,5.10
2023-02-06T15:39:49.363Z,5.00
2023-02-06T15:42:21.245Z,5.10
2023-02-06T15:44:51.648Z,5.20
2023-02-06T15:47:21.630Z,5.20
2023-02-06T15:49:50.601Z,5.30
2023-02-06T15:52:41.580Z,5.30
2023-02-06T15:55:22.763Z,5.30
2023-02-06T15:57:50.038Z,5.20
2023-02-06T16:00:33.404Z,5.10
2023-02-06T16:03:18.616Z,5.10
2023-02-06T16:05:45.262Z,5.20
2023-02-06T16:08:34.083Z,5.30
2023-02-06T16:11:04.804Z,5.10
2023-02-06T16:13:32.842Z,5.10
2023-02-06T16:16:11.866Z,5.20
2023-02-06T16:18:40.151Z,5.10
2023-02-06T16:21:18.897Z,5.10
2023-02-06T16:23:47.053Z,5.30
2023-02-06T16:26:23.056Z,5.30
2023-02-06T16:29:09.405Z,5.10
2023-02-06T16:31:42.818Z,5.20
2023-02-06T16:34:36.645Z,5.20
2023-02-06T16:37:10.766Z,5.00
2023-02-06T16:39:42.361Z,4.90
2023-02-06T16:42:27.037Z,4.60
2023-02-06T16:44:59.178Z,4.20
2023-02-06T16:47:26.392Z,4.20
2023-02-06T16:49:53.107Z,4.00
2023-02-06T16:52:30.120Z,3.80
2023-02-06T16:54:58.989Z,3.80
2023-02-06T16:57:43.210Z,4.00
2023-02-06T17:00:21.682Z,3.90
2023-02-06T17:02:49.372Z,4.00
2023-02-06T17:05:18.005Z,3.90
2023-02-06T17:07:45.102Z,3.70
2023-02-06T17:10:13.265Z,3.70
2023-02-06T17:12:40.097Z,3.70
2023-02-06T17:15:07.187Z,3.60
2023-02-06T17:17:33.867Z,3.60
2023-02-06T17:20:00.931Z,3.30
2023-02-06T17:22:27.765Z,3.20
2023-02-06T17:24:54.543Z,3.00
2023-02-06T17:27:22.546Z,3.00
2023-02-06T17:29:50.506Z,3.30
2023-02-06T17:32:22.354Z,3.30
2023-02-06T17:34:51.012Z,3.30
2023-02-06T17:37:20.854Z,3.10
2023-02-06T17:39:50.086Z,2.90
2023-02-06T17:42:16.962Z,2.80
2023-02-06T17:44:44.222Z,2.80
2023-02-06T17:47:11.054Z,2.90
2023-02-06T17:49:37.797Z,2.80
2023-02-06T17:52:04.770Z,2.70
2023-02-06T17:54:31.524Z,2.60
2023-02-06T17:56:58.169Z,2.60
2023-02-06T17:59:25.235Z,2.90
2023-02-06T18:01:52.078Z,2.90
2023-02-06T18:04:21.229Z,2.90
2023-02-06T18:06:48.501Z,2.90
2023-02-06T18:09:15.262Z,2.90
2023-02-06T18:11:41.925Z,2.90
2023-02-06T18:14:08.970Z,2.90
2023-02-06T18:16:36.302Z,2.70
2023-02-06T18:19:03.476Z,2.60
2023-02-06T18:21:31.388Z,2.70
2023-02-06T18:23:58.280Z,2.70
2023-02-06T18:26:25.235Z,2.50
2023-02-06T18:28:51.959Z,2.60
2023-02-06T18:31:28.937Z,2.70
2023-02-06T18:33:56.983Z,2.60
2023-02-06T18:36:24.374Z,2.50
2023-02-06T18:38:51.108Z,2.50
2023-02-06T18:41:36.843Z,2.50
2023-02-06T18:44:06.469Z,2.60
2023-02-06T18:46:33.778Z,2.60
2023-02-06T18:49:00.878Z,2.70
2023-02-06T18:51:29.064Z,2.80
2023-02-06T18:53:56.420Z,2.80
2023-02-06T18:56:23.371Z,2.90
2023-02-06T18:58:50.177Z,2.90
2023-02-06T19:01:22.391Z,2.90
2023-02-06T19:03:50.881Z,2.70
2023-02-06T19:06:24.049Z,2.60
2023-02-06T19:08:50.745Z,2.40
2023-02-06T19:11:17.751Z,2.40
2023-02-06T19:13:44.498Z,2.20
2023-02-06T19:16:14.900Z,2.10
2023-02-06T19:18:45.664Z,2.10
2023-02-06T19:21:17.654Z,2.10
2023-02-06T19:23:45.952Z,1.70
2023-02-06T19:26:16.897Z,1.60
2023-02-06T19:28:44.318Z,1.50
2023-02-06T19:31:11.997Z,1.50
2023-02-06T19:33:40.194Z,1.60
2023-02-06T19:36:12.598Z,1.60
2023-02-06T19:38:39.924Z,1.70
2023-02-06T19:41:11.486Z,2.00
2023-02-06T19:43:38.980Z,1.90
2023-02-06T19:46:12.358Z,1.90
2023-02-06T19:48:43.783Z,2.00
2023-02-06T19:51:13.569Z,1.90
2023-02-06T19:53:45.254Z,1.90
2023-02-06T19:56:20.786Z,1.90
2023-02-06T19:58:52.511Z,1.70
2023-02-06T20:01:19.275Z,1.60
2023-02-06T20:03:46.473Z,1.80
2023-02-06T20:06:14.429Z,1.90
2023-02-06T20:08:43.209Z,2.00
2023-02-06T20:11:16.140Z,2.10
2023-02-06T20:13:44.276Z,2.30
2023-02-06T20:16:19.681Z,2.30
2023-02-06T20:18:46.496Z,2.20
2023-02-06T20:21:31.382Z,2.10
2023-02-06T20:24:00.912Z,1.70
2023-02-06T20:26:32.981Z,1.50
2023-02-06T20:29:00.734Z,1.50
2023-02-06T20:31:28.159Z,1.50
2023-02-06T20:33:55.651Z,1.60
2023-02-06T20:36:25.456Z,1.70
2023-02-06T20:38:57.279Z,1.80
2023-02-06T20:41:30.915Z,2.00
2023-02-06T20:43:59.578Z,2.00
2023-02-06T20:46:29.572Z,2.20
2023-02-06T20:49:02.206Z,2.20
2023-02-06T20:51:29.743Z,2.40
2023-02-06T20:53:56.502Z,2.50
2023-02-06T20:56:23.592Z,2.50
2023-02-06T20:58:51.395Z,2.40
2023-02-06T21:01:23.787Z,2.40
2023-02-06T21:03:53.855Z,2.30
2023-02-06T21:06:20.995Z,2.20
2023-02-06T21:08:50.347Z,2.20
2023-02-06T21:11:17.658Z,2.30
2023-02-06T21:13:44.431Z,2.30
2023-02-06T21:16:13.518Z,2.40
2023-02-06T21:18:42.474Z,2.40
2023-02-06T21:21:12.059Z,2.40
2023-02-06T21:23:40.525Z,2.30
2023-02-06T21:26:08.660Z,2.20
2023-02-06T21:28:36.404Z,2.30
2023-02-06T21:31:09.360Z,2.30
2023-02-06T21:33:36.870Z,2.30
2023-02-06T21:36:06.685Z,2.40
2023-02-06T21:38:36.416Z,2.30
2023-02-06T21:41:06.799Z,2.10
2023-02-06T21:43:33.809Z,2.20
2023-02-06T21:46:01.038Z,2.10
2023-02-06T21:48:27.906Z,2.10
2023-02-06T21:50:54.887Z,2.10
2023-02-06T21:53:21.742Z,2.10
2023-02-06T21:55:48.520Z,2.00
2023-02-06T21:58:15.895Z,1.90
2023-02-06T22:00:44.894Z,1.90
2023-02-06T22:03:12.673Z,1.90
2023-02-06T22:05:39.679Z,1.50
2023-02-06T22:08:06.678Z,1.40
2023-02-06T22:10:36.778Z,1.30
2023-02-06T22:13:05.860Z,1.40
2023-02-06T22:15:33.667Z,1.50
2023-02-06T22:18:00.630Z,1.50
2023-02-06T22:20:27.569Z,1.50
2023-02-06T22:22:55.158Z,1.40
2023-02-06T22:25:22.281Z,1.40
2023-02-06T22:27:48.971Z,1.50
2023-02-06T22:30:15.784Z,1.50
2023-02-06T22:32:42.465Z,1.20
2023-02-06T22:35:09.188Z,1.10
2023-02-06T22:37:36.062Z,1.20
2023-02-06T22:40:03.857Z,1.30
2023-02-06T22:42:30.902Z,1.30
2023-02-06T22:44:57.644Z,1.30
2023-02-06T22:47:24.295Z,1.20
2023-02-06T22:49:52.530Z,1.50
2023-02-06T22:52:37.698Z,1.70
2023-02-06T22:55:05.746Z,1.80
2023-02-06T22:57:35.141Z,1.80
2023-02-06T23:00:01.896Z,1.80
2023-02-06T23:02:28.627Z,1.90
2023-02-06T23:04:55.335Z,1.90
2023-02-06T23:07:22.003Z,1.90
2023-02-06T23:09:48.669Z,1.70
2023-02-06T23:12:16.174Z,1.70
2023-02-06T23:14:43.476Z,1.80
2023-02-06T23:17:10.695Z,1.70
2023-02-06T23:19:39.226Z,1.70
2023-02-06T23:22:06.213Z,1.80
2023-02-06T23:24:32.907Z,1.70
2023-02-06T23:26:59.860Z,1.70
2023-02-06T23:29:26.646Z,1.60
2023-02-06T23:31:53.767Z,1.40
2023-02-06T23:34:23.500Z,1.50
2023-02-06T23:36:51.763Z,1.60
2023-02-06T23:39:18.585Z,1.70
2023-02-06T23:41:45.256Z,1.60
2023-02-06T23:44:12.061Z,1.60
2023-02-06T23:46:39.732Z,1.50
2023-02-06T23:49:07.087Z,1.50
2023-02-06T23:51:35.049Z,1.50
2023-02-06T23:54:02.184Z,1.30
2023-02-06T23:56:31.346Z,1.20
2023-02-06T23:58:59.300Z,1.10
